createdAt,value
2022-08-23T00:02:32.041Z,7.90
2022-08-23T00:05:09.960Z,8.00
2022-08-23T00:07:46.661Z,9.30
2022-08-23T00:10:19.414Z,7.97
2022-08-23T00:12:48.476Z,7.63
2022-08-23T00:15:19.842Z,8.77
2022-08-23T00:18:09.544Z,8.33
2022-08-23T00:21:13.055Z,8.27
2022-08-23T00:24:18.499Z,8.20
2022-08-23T00:27:44.063Z,7.40
2022-08-23T00:33:34.203Z,8.40
2022-08-23T00:36:12.276Z,8.70
2022-08-23T00:38:49.986Z,7.10
2022-08-23T00:41:20.909Z,6.87
2022-08-23T00:44:07.137Z,7.73
2022-08-23T00:47:27.941Z,7.37
2022-08-23T00:50:24.166Z,6.77
2022-08-23T00:56:31.356Z,6.30
2022-08-23T01:08:59.329Z,6.60
2022-08-23T01:12:06.870Z,7.30
2022-08-23T01:17:43.334Z,5.33
2022-08-23T01:20:20.691Z,6.20
2022-08-23T01:22:56.458Z,5.50
2022-08-23T01:25:32.788Z,5.30
2022-08-23T01:28:01.876Z,5.27
2022-08-23T01:30:36.914Z,5.03
2022-08-23T01:33:08.133Z,5.40
2022-08-23T01:35:42.317Z,5.30
2022-08-23T01:38:14.804Z,5.30
2022-08-23T01:40:45.649Z,6.53
2022-08-23T01:43:15.523Z,5.13
2022-08-23T01:45:44.959Z,4.40
2022-08-23T01:48:15.739Z,4.50
2022-08-23T01:50:44.289Z,4.70
2022-08-23T01:53:13.963Z,4.47
2022-08-23T01:55:45.273Z,4.47
2022-08-23T01:58:14.045Z,4.07
2022-08-23T02:00:44.498Z,4.43
2022-08-23T02:03:14.413Z,6.07
2022-08-23T02:05:45.810Z,5.83
2022-08-23T02:08:32.615Z,5.60
2022-08-23T02:11:10.211Z,5.50
2022-08-23T02:13:42.898Z,6.17
2022-08-23T02:16:15.029Z,5.70
2022-08-23T02:18:45.935Z,6.40
2022-08-23T02:21:15.167Z,8.00
2022-08-23T02:23:45.026Z,9.80
2022-08-23T02:26:31.510Z,8.57
2022-08-23T02:29:07.692Z,8.13
2022-08-23T02:31:54.302Z,7.70
2022-08-23T02:37:44.791Z,8.40
2022-08-23T02:40:39.729Z,7.30
2022-08-23T02:43:37.317Z,6.93
2022-08-23T02:46:24.643Z,6.57
2022-08-23T02:48:57.255Z,6.73
2022-08-23T02:51:43.393Z,7.10
2022-08-23T02:57:24.027Z,6.10
2022-08-23T03:00:08.289Z,6.10
2022-08-23T03:02:48.151Z,6.23
2022-08-23T03:05:20.182Z,6.10
2022-08-23T03:07:48.981Z,6.47
2022-08-23T03:10:23.624Z,6.90
2022-08-23T03:12:59.407Z,5.90
2022-08-23T03:15:29.708Z,6.50
2022-08-23T03:18:02.885Z,6.00
2022-08-23T03:20:37.339Z,6.20
2022-08-23T03:23:08.992Z,6.40
2022-08-23T03:25:41.432Z,5.53
2022-08-23T03:28:13.387Z,6.77
2022-08-23T03:30:48.943Z,6.30
2022-08-23T03:33:20.169Z,7.87
2022-08-23T03:36:07.614Z,6.50
2022-08-23T03:38:37.116Z,7.20
2022-08-23T03:41:06.015Z,7.90
2022-08-23T03:43:36.726Z,5.73
2022-08-23T03:46:10.180Z,6.93
2022-08-23T03:48:39.315Z,6.43
2022-08-23T03:51:08.160Z,5.83
2022-08-23T03:53:36.769Z,6.23
2022-08-23T03:56:06.046Z,6.87
2022-08-23T03:58:34.695Z,5.87
2022-08-23T04:01:03.345Z,9.73
2022-08-23T04:03:33.651Z,9.90
2022-08-23T04:06:02.349Z,7.77
2022-08-23T04:08:33.484Z,6.60
2022-08-23T04:11:02.774Z,5.70
2022-08-23T04:13:31.600Z,6.17
2022-08-23T04:16:03.184Z,6.67
2022-08-23T04:18:33.699Z,6.03
2022-08-23T04:21:06.848Z,6.00
2022-08-23T04:23:35.855Z,5.90
2022-08-23T04:26:05.852Z,6.93
2022-08-23T04:28:39.456Z,6.00
2022-08-23T04:31:08.430Z,6.57
2022-08-23T04:33:40.309Z,6.00
2022-08-23T04:36:09.513Z,6.80
2022-08-23T04:38:38.159Z,7.50
2022-08-23T04:41:24.857Z,6.63
2022-08-23T04:43:53.421Z,6.90
2022-08-23T04:46:22.764Z,6.80
2022-08-23T04:48:54.091Z,7.00
2022-08-23T04:51:23.451Z,7.20
2022-08-23T04:53:52.155Z,5.60
2022-08-23T04:56:20.805Z,6.83
2022-08-23T04:58:49.331Z,6.67
2022-08-23T05:01:18.028Z,7.20
2022-08-23T05:03:47.498Z,6.60
2022-08-23T05:06:20.398Z,7.00
2022-08-23T05:08:49.170Z,6.20
2022-08-23T05:11:20.755Z,7.70
2022-08-23T05:13:49.980Z,6.30
2022-08-23T05:16:20.819Z,6.37
2022-08-23T05:18:49.495Z,5.93
2022-08-23T05:21:22.934Z,6.30
2022-08-23T05:23:54.641Z,5.67
2022-08-23T05:26:27.191Z,6.47
2022-08-23T05:28:55.808Z,6.00
2022-08-23T05:31:27.680Z,6.33
2022-08-23T05:33:57.857Z,6.10
2022-08-23T05:36:27.901Z,6.10
2022-08-23T05:38:56.703Z,5.90
2022-08-23T05:41:33.425Z,6.40
2022-08-23T05:44:07.025Z,5.53
2022-08-23T05:46:36.503Z,6.20
2022-08-23T05:49:06.773Z,6.37
2022-08-23T05:51:37.683Z,7.00
2022-08-23T05:54:09.544Z,6.50
2022-08-23T05:56:41.541Z,6.97
2022-08-23T05:59:12.680Z,6.40
2022-08-23T06:01:42.595Z,7.10
2022-08-23T06:04:13.974Z,6.97
2022-08-23T06:06:48.595Z,7.80
2022-08-23T06:09:19.495Z,7.00
2022-08-23T06:11:49.641Z,7.17
2022-08-23T06:14:19.172Z,7.80
2022-08-23T06:16:56.069Z,6.47
2022-08-23T06:19:26.708Z,7.00
2022-08-23T06:21:57.261Z,6.83
2022-08-23T06:24:27.073Z,6.67
2022-08-23T06:26:56.624Z,6.53
2022-08-23T06:29:25.249Z,6.53
2022-08-23T06:31:56.642Z,7.27
2022-08-23T06:34:30.169Z,8.47
2022-08-23T06:37:02.174Z,8.53
2022-08-23T06:39:36.774Z,7.20
2022-08-23T06:42:34.354Z,6.33
2022-08-23T06:44:56.880Z,7.10
2022-08-23T06:47:25.906Z,6.90
2022-08-23T06:49:58.247Z,7.17
2022-08-23T06:52:28.718Z,6.80
2022-08-23T06:54:57.616Z,7.70
2022-08-23T06:57:27.804Z,7.77
2022-08-23T06:59:56.480Z,7.70
2022-08-23T07:02:25.242Z,10.73
2022-08-23T07:04:55.913Z,8.87
2022-08-23T07:07:24.629Z,9.10
2022-08-23T07:10:15.221Z,8.60
2022-08-23T07:12:44.468Z,6.60
2022-08-23T07:15:13.910Z,7.43
2022-08-23T07:17:42.555Z,7.33
2022-08-23T07:20:11.624Z,7.13
2022-08-23T07:22:40.420Z,8.40
2022-08-23T07:25:09.363Z,7.60
2022-08-23T07:27:39.799Z,7.93
2022-08-23T07:30:09.380Z,8.40
2022-08-23T07:32:38.051Z,8.13
2022-08-23T07:35:07.817Z,8.50
2022-08-23T07:37:37.783Z,8.33
2022-08-23T07:40:08.557Z,8.90
2022-08-23T07:42:40.893Z,8.40
2022-08-23T07:45:12.955Z,9.80
2022-08-23T07:47:46.793Z,8.43
2022-08-23T07:50:18.393Z,9.60
2022-08-23T07:52:47.714Z,10.50
2022-08-23T07:55:16.289Z,9.80
2022-08-23T07:57:46.325Z,12.80
2022-08-23T08:00:16.814Z,9.07
2022-08-23T08:02:45.465Z,9.97
2022-08-23T08:05:17.300Z,10.77
2022-08-23T08:07:48.157Z,9.67
2022-08-23T08:10:18.174Z,10.90
2022-08-23T08:12:49.020Z,10.53
2022-08-23T08:15:17.829Z,9.60
2022-08-23T08:17:49.263Z,11.30
2022-08-23T08:20:18.495Z,10.43
2022-08-23T08:22:49.935Z,11.50
2022-08-23T08:25:25.651Z,12.33
2022-08-23T08:27:55.775Z,9.60
2022-08-23T08:30:24.792Z,11.03
2022-08-23T08:32:54.405Z,10.47
2022-08-23T08:35:23.005Z,9.20
2022-08-23T08:37:51.747Z,10.83
2022-08-23T08:40:31.303Z,9.20
2022-08-23T08:43:28.334Z,11.00
2022-08-23T08:46:06.397Z,9.80
2022-08-23T08:48:44.794Z,9.77
2022-08-23T08:51:29.415Z,8.57
2022-08-23T08:54:00.056Z,8.13
2022-08-23T08:56:32.454Z,8.70
2022-08-23T08:59:06.504Z,7.20
2022-08-23T09:01:38.050Z,8.50
2022-08-23T09:04:08.333Z,8.20
2022-08-23T09:06:49.798Z,8.50
2022-08-23T09:09:34.255Z,7.73
2022-08-23T09:12:16.138Z,7.07
2022-08-23T09:15:01.094Z,8.53
2022-08-23T09:17:43.951Z,7.50
2022-08-23T09:20:15.990Z,7.20
2022-08-23T09:22:55.075Z,7.43
2022-08-23T09:25:24.197Z,6.20
2022-08-23T09:27:52.807Z,6.83
2022-08-23T09:30:23.935Z,6.20
2022-08-23T09:32:52.485Z,6.13
2022-08-23T09:35:23.885Z,5.67
2022-08-23T09:38:05.215Z,6.07
2022-08-23T09:40:41.576Z,5.33
2022-08-23T09:43:26.001Z,5.63
2022-08-23T09:46:01.068Z,5.70
2022-08-23T09:48:39.020Z,5.70
2022-08-23T09:51:17.883Z,6.73
2022-08-23T09:53:50.617Z,7.07
2022-08-23T09:56:26.426Z,6.80
2022-08-23T09:59:10.998Z,7.20
2022-08-23T10:01:41.799Z,5.90
2022-08-23T10:04:14.628Z,5.17
2022-08-23T10:06:48.059Z,4.60
2022-08-23T10:09:28.483Z,5.03
2022-08-23T10:12:04.275Z,4.23
2022-08-23T10:14:39.523Z,4.23
2022-08-23T10:17:25.569Z,5.13
2022-08-23T10:20:08.931Z,4.70
2022-08-23T10:22:45.039Z,5.03
2022-08-23T10:25:24.017Z,4.00
2022-08-23T10:28:35.723Z,4.60
2022-08-23T10:31:23.101Z,4.80
2022-08-23T10:34:23.612Z,4.80
2022-08-23T10:37:12.955Z,3.93
2022-08-23T10:39:53.781Z,3.60
2022-08-23T10:42:36.859Z,3.90
2022-08-23T10:45:16.986Z,3.67
2022-08-23T10:48:12.546Z,4.03
2022-08-23T10:50:55.668Z,3.40
2022-08-23T10:53:48.794Z,4.03
2022-08-23T10:56:29.635Z,3.50
2022-08-23T10:59:06.817Z,3.83
2022-08-23T11:02:06.772Z,3.53
2022-08-23T11:05:14.604Z,4.30
2022-08-23T11:11:24.664Z,4.90
2022-08-23T11:14:06.921Z,7.57
2022-08-23T11:16:53.134Z,3.93
2022-08-23T11:19:49.166Z,4.10
2022-08-23T11:22:26.604Z,4.00
2022-08-23T11:25:04.256Z,5.33
2022-08-23T11:27:39.520Z,4.70
2022-08-23T11:30:50.213Z,4.30
2022-08-23T11:33:23.163Z,4.60
2022-08-23T11:35:53.774Z,5.13
2022-08-23T11:38:56.131Z,4.10
2022-08-23T11:41:28.367Z,4.90
2022-08-23T11:44:20.017Z,4.33
2022-08-23T11:47:02.237Z,4.80
2022-08-23T11:49:56.917Z,3.90
2022-08-23T11:52:49.829Z,5.40
2022-08-23T11:55:39.555Z,4.00
2022-08-23T11:58:24.358Z,4.47
2022-08-23T12:01:06.536Z,4.43
2022-08-23T12:03:54.938Z,4.50
2022-08-23T12:06:50.990Z,3.90
2022-08-23T12:09:52.781Z,3.93
2022-08-23T12:12:40.004Z,3.20
2022-08-23T12:15:13.377Z,4.80
2022-08-23T12:18:14.530Z,4.70
2022-08-23T12:20:48.284Z,4.37
2022-08-23T12:23:21.377Z,3.93
2022-08-23T12:26:01.093Z,4.60
2022-08-23T12:28:45.354Z,4.30
2022-08-23T12:31:26.535Z,4.80
2022-08-23T12:34:09.981Z,5.13
2022-08-23T12:36:45.831Z,3.90
2022-08-23T12:39:26.574Z,5.80
2022-08-23T12:42:01.301Z,4.20
2022-08-23T12:44:34.021Z,4.40
2022-08-23T12:47:16.312Z,4.77
2022-08-23T12:49:57.118Z,4.43
2022-08-23T12:55:22.097Z,5.67
2022-08-23T12:57:55.295Z,4.20
2022-08-23T13:00:43.095Z,5.10
2022-08-23T13:03:21.592Z,5.20
2022-08-23T13:05:55.759Z,5.13
2022-08-23T13:08:34.607Z,4.80
2022-08-23T13:11:07.683Z,4.40
2022-08-23T13:13:46.963Z,5.10
2022-08-23T13:16:27.733Z,4.83
2022-08-23T13:19:16.552Z,4.53
2022-08-23T13:21:46.234Z,4.93
2022-08-23T13:24:38.680Z,4.70
2022-08-23T13:27:23.073Z,5.00
2022-08-23T13:29:54.393Z,4.60
2022-08-23T13:32:38.812Z,4.93
2022-08-23T13:35:43.446Z,5.33
2022-08-23T13:38:21.799Z,5.90
2022-08-23T13:40:58.001Z,4.83
2022-08-23T13:43:31.104Z,5.23
2022-08-23T13:46:02.018Z,5.07
2022-08-23T13:48:33.905Z,4.00
2022-08-23T13:51:44.416Z,3.80
2022-08-23T14:02:25.640Z,4.90
2022-08-23T14:04:54.269Z,5.00
2022-08-23T14:07:24.446Z,3.87
2022-08-23T14:09:55.114Z,4.97
2022-08-23T14:12:27.767Z,5.57
2022-08-23T14:14:57.318Z,5.63
2022-08-23T14:17:26.518Z,6.23
2022-08-23T14:20:32.631Z,5.13
2022-08-23T14:22:45.131Z,5.83
2022-08-23T14:25:14.914Z,5.10
2022-08-23T14:27:45.600Z,5.93
2022-08-23T14:30:24.409Z,5.53
2022-08-23T14:32:59.113Z,5.40
2022-08-23T14:35:28.536Z,4.93
2022-08-23T14:38:03.765Z,5.53
2022-08-23T14:40:32.848Z,5.10
2022-08-23T14:43:01.631Z,6.00
2022-08-23T14:45:30.455Z,5.37
2022-08-23T14:47:59.843Z,5.47
2022-08-23T14:50:29.615Z,5.77
2022-08-23T14:53:00.066Z,5.50
2022-08-23T14:55:28.733Z,5.17
2022-08-23T14:57:57.385Z,5.80
2022-08-23T15:00:25.950Z,4.93
2022-08-23T15:02:54.570Z,5.83
2022-08-23T15:05:23.353Z,5.83
2022-08-23T15:07:51.883Z,5.80
2022-08-23T15:13:21.678Z,5.30
2022-08-23T15:15:55.922Z,5.27
2022-08-23T15:18:24.582Z,5.90
2022-08-23T15:20:53.393Z,5.83
2022-08-23T15:23:22.010Z,5.87
2022-08-23T15:25:52.427Z,5.70
2022-08-23T15:28:23.564Z,6.07
2022-08-23T15:30:53.064Z,5.27
2022-08-23T15:33:27.021Z,4.83
2022-08-23T15:36:01.873Z,6.80
2022-08-23T15:38:32.659Z,5.63
2022-08-23T15:41:02.657Z,5.70
2022-08-23T15:43:34.317Z,4.90
2022-08-23T15:46:06.473Z,5.07
2022-08-23T15:48:37.917Z,4.90
2022-08-23T15:51:07.234Z,5.70
2022-08-23T15:53:37.529Z,5.80
2022-08-23T15:56:11.377Z,5.00
2022-08-23T15:58:40.817Z,4.77
2022-08-23T16:01:09.751Z,5.30
2022-08-23T16:03:39.327Z,5.37
2022-08-23T16:06:08.505Z,5.93
2022-08-23T16:08:39.063Z,5.40
2022-08-23T16:11:12.250Z,5.80
2022-08-23T16:13:43.127Z,6.23
2022-08-23T16:16:17.525Z,5.90
2022-08-23T16:18:46.162Z,5.57
2022-08-23T16:21:15.473Z,5.43
2022-08-23T16:23:45.091Z,5.97
2022-08-23T16:26:16.936Z,5.33
2022-08-23T16:28:53.181Z,6.30
2022-08-23T16:31:21.913Z,6.13
2022-08-23T16:34:09.392Z,6.00
2022-08-23T16:36:39.336Z,6.43
2022-08-23T16:39:27.551Z,5.60
2022-08-23T16:41:57.822Z,5.90
2022-08-23T16:44:26.371Z,6.43
2022-08-23T16:46:55.261Z,6.03
2022-08-23T16:49:23.838Z,6.43
2022-08-23T16:51:52.664Z,6.50
2022-08-23T16:54:22.263Z,6.50
2022-08-23T16:56:50.743Z,6.27
2022-08-23T16:59:20.652Z,6.40
2022-08-23T17:01:53.405Z,6.20
2022-08-23T17:04:24.656Z,6.17
2022-08-23T17:06:59.613Z,6.20
2022-08-23T17:09:30.089Z,6.10
2022-08-23T17:11:59.390Z,6.67
2022-08-23T17:14:29.437Z,6.50
2022-08-23T17:17:00.092Z,5.93
2022-08-23T17:19:28.853Z,6.10
2022-08-23T17:21:57.628Z,7.20
2022-08-23T17:24:26.522Z,6.70
2022-08-23T17:26:55.200Z,6.20
2022-08-23T17:29:23.745Z,6.83
2022-08-23T17:31:54.684Z,5.90
2022-08-23T17:34:24.059Z,6.20
2022-08-23T17:36:55.419Z,6.37
2022-08-23T17:39:27.463Z,8.63
2022-08-23T17:41:56.370Z,7.53
2022-08-23T17:44:25.096Z,7.97
2022-08-23T17:46:54.988Z,7.93
2022-08-23T17:49:23.531Z,7.37
2022-08-23T17:51:52.057Z,7.10
2022-08-23T17:54:20.613Z,6.77
2022-08-23T17:56:50.855Z,7.90
2022-08-23T17:59:20.224Z,7.90
2022-08-23T18:01:48.988Z,7.30
2022-08-23T18:04:19.246Z,7.03
2022-08-23T18:06:48.133Z,7.43
2022-08-23T18:09:16.866Z,7.20
2022-08-23T18:11:45.607Z,7.10
2022-08-23T18:14:14.187Z,7.40
2022-08-23T18:16:44.123Z,8.17
2022-08-23T18:19:14.394Z,7.80
2022-08-23T18:21:45.209Z,9.07
2022-08-23T18:24:13.836Z,9.50
2022-08-23T18:26:59.921Z,9.87
2022-08-23T18:29:29.923Z,9.90
2022-08-23T18:31:58.755Z,9.07
2022-08-23T18:34:28.008Z,8.77
2022-08-23T18:37:01.224Z,6.87
2022-08-23T18:39:32.204Z,7.47
2022-08-23T18:42:01.362Z,8.60
2022-08-23T18:44:30.114Z,7.50
2022-08-23T18:46:59.460Z,7.90
2022-08-23T18:49:27.992Z,8.13
2022-08-23T18:51:57.915Z,8.27
2022-08-23T18:54:31.840Z,8.20
2022-08-23T18:57:03.142Z,8.20
2022-08-23T18:59:32.160Z,7.23
2022-08-23T19:02:01.746Z,7.50
2022-08-23T19:04:31.196Z,8.00
2022-08-23T19:07:01.237Z,8.47
2022-08-23T19:09:30.596Z,8.27
2022-08-23T19:12:01.006Z,8.70
2022-08-23T19:14:29.930Z,8.43
2022-08-23T19:16:58.672Z,9.13
2022-08-23T19:19:27.709Z,8.00
2022-08-23T19:21:56.288Z,9.50
2022-08-23T19:24:27.499Z,9.47
2022-08-23T19:26:56.817Z,9.47
2022-08-23T19:29:26.341Z,8.77
2022-08-23T19:31:56.666Z,11.07
2022-08-23T19:34:25.438Z,9.80
2022-08-23T19:37:00.599Z,11.30
2022-08-23T19:39:32.218Z,10.13
2022-08-23T19:42:00.785Z,10.80
2022-08-23T19:44:29.340Z,10.67
2022-08-23T19:46:58.134Z,10.73
2022-08-23T19:49:26.782Z,12.37
2022-08-23T19:51:55.504Z,10.30
2022-08-23T19:54:25.948Z,10.90
2022-08-23T19:56:58.483Z,10.80
2022-08-23T19:59:30.914Z,9.20
2022-08-23T20:02:01.584Z,9.67
2022-08-23T20:04:33.060Z,10.27
2022-08-23T20:07:06.750Z,9.37
2022-08-23T20:09:35.903Z,9.60
2022-08-23T20:12:08.693Z,9.93
2022-08-23T20:14:39.889Z,8.70
2022-08-23T20:17:09.059Z,9.47
2022-08-23T20:19:37.656Z,9.07
2022-08-23T20:22:24.067Z,8.90
2022-08-23T20:24:53.406Z,10.57
2022-08-23T20:27:30.784Z,10.43
2022-08-23T20:30:00.330Z,10.83
2022-08-23T20:32:29.020Z,10.97
2022-08-23T20:34:59.439Z,10.23
2022-08-23T20:37:29.273Z,10.30
2022-08-23T20:39:59.266Z,11.33
2022-08-23T20:42:29.435Z,11.40
2022-08-23T20:44:58.351Z,10.83
2022-08-23T20:47:26.870Z,9.87
2022-08-23T20:49:55.875Z,10.00
2022-08-23T20:52:25.578Z,9.43
2022-08-23T20:54:54.232Z,9.30
2022-08-23T20:57:23.028Z,11.07
2022-08-23T20:59:56.934Z,10.80
2022-08-23T21:02:26.321Z,10.40
2022-08-23T21:04:55.728Z,10.17
2022-08-23T21:07:24.342Z,10.20
2022-08-23T21:09:56.896Z,9.80
2022-08-23T21:12:26.195Z,10.13
2022-08-23T21:14:56.815Z,10.23
2022-08-23T21:17:26.428Z,11.00
2022-08-23T21:19:55.248Z,10.50
2022-08-23T21:22:24.014Z,10.90
2022-08-23T21:25:00.813Z,10.83
2022-08-23T21:27:31.170Z,9.60
2022-08-23T21:30:02.825Z,9.90
2022-08-23T21:32:32.206Z,10.30
2022-08-23T21:35:02.505Z,11.23
2022-08-23T21:37:32.330Z,10.90
2022-08-23T21:40:01.395Z,10.50
2022-08-23T21:42:30.585Z,11.27
2022-08-23T21:45:01.095Z,12.27
2022-08-23T21:47:33.734Z,11.60
2022-08-23T21:50:02.754Z,11.97
2022-08-23T21:52:37.391Z,12.27
2022-08-23T21:55:11.329Z,10.40
2022-08-23T21:57:47.723Z,10.80
2022-08-23T22:00:27.801Z,10.03
2022-08-23T22:02:56.940Z,10.70
2022-08-23T22:05:26.425Z,11.97
2022-08-23T22:07:55.168Z,12.77
2022-08-23T22:10:23.827Z,12.80
2022-08-23T22:12:53.218Z,10.90
2022-08-23T22:15:25.179Z,13.03
2022-08-23T22:17:54.401Z,12.57
2022-08-23T22:20:24.969Z,12.77
2022-08-23T22:22:53.839Z,12.80
2022-08-23T22:25:23.960Z,13.17
2022-08-23T22:27:53.568Z,14.27
2022-08-23T22:30:23.913Z,14.13
2022-08-23T22:32:52.479Z,13.47
2022-08-23T22:35:21.174Z,14.83
2022-08-23T22:38:12.240Z,13.97
2022-08-23T22:40:39.260Z,13.10
2022-08-23T22:43:08.055Z,14.37
2022-08-23T22:45:42.102Z,13.90
2022-08-23T22:48:13.461Z,13.60
2022-08-23T22:50:43.133Z,12.90
2022-08-23T22:53:12.012Z,14.23
2022-08-23T22:55:42.804Z,14.00
2022-08-23T22:58:12.305Z,13.53
2022-08-23T23:00:44.673Z,13.30
2022-08-23T23:03:13.218Z,13.10
2022-08-23T23:05:43.180Z,14.60
2022-08-23T23:08:29.994Z,15.07
2022-08-23T23:11:00.765Z,14.00
2022-08-23T23:13:31.563Z,13.77
2022-08-23T23:16:05.986Z,14.20
2022-08-23T23:18:35.584Z,13.63
2022-08-23T23:21:06.183Z,13.70
2022-08-23T23:23:36.321Z,15.00
2022-08-23T23:26:08.582Z,13.93
2022-08-23T23:28:37.490Z,14.67
2022-08-23T23:31:08.899Z,14.70
2022-08-23T23:33:38.415Z,14.60
2022-08-23T23:36:10.782Z,17.10
2022-08-23T23:38:45.482Z,16.20
2022-08-23T23:41:14.042Z,14.67
2022-08-23T23:43:42.817Z,15.17
2022-08-23T23:46:15.219Z,14.60
2022-08-23T23:48:46.562Z,13.17
2022-08-23T23:51:17.610Z,12.27
2022-08-23T23:53:46.400Z,11.53
2022-08-23T23:56:18.082Z,11.70
2022-08-23T23:58:47.223Z,12.50
